createdAt,value
2017-12-01T00:01:51.550Z,11.53
2017-12-01T00:04:19.820Z,11.00
2017-12-01T00:06:48.085Z,11.10
2017-12-01T00:09:16.382Z,12.63
2017-12-01T00:11:44.648Z,11.87
2017-12-01T00:14:13.048Z,10.60
2017-12-01T00:16:41.332Z,12.70
2017-12-01T00:19:09.611Z,12.80
2017-12-01T00:21:38.091Z,11.77
2017-12-01T00:24:07.152Z,9.80
2017-12-01T00:26:35.427Z,11.80
2017-12-01T00:29:03.685Z,12.93
2017-12-01T00:31:31.967Z,12.37
2017-12-01T00:34:00.227Z,10.80
2017-12-01T00:36:28.518Z,10.67
2017-12-01T00:38:56.786Z,10.93
2017-12-01T00:41:25.059Z,10.53
2017-12-01T00:43:53.331Z,10.80
2017-12-01T00:46:21.619Z,12.20
2017-12-01T00:48:51.534Z,11.70
2017-12-01T00:51:19.839Z,10.37
2017-12-01T00:53:48.091Z,12.53
2017-12-01T00:56:16.363Z,12.60
2017-12-01T00:58:44.644Z,11.73
2017-12-01T01:01:13.213Z,13.00
2017-12-01T01:03:42.362Z,12.00
2017-12-01T01:06:10.639Z,12.47
2017-12-01T01:08:38.931Z,13.10
2017-12-01T01:11:07.297Z,12.10
2017-12-01T01:13:35.594Z,12.93
2017-12-01T01:16:04.624Z,12.17
2017-12-01T01:18:32.932Z,13.67
2017-12-01T01:21:01.314Z,16.30
2017-12-01T01:23:29.588Z,11.83
2017-12-01T01:25:57.877Z,11.53
2017-12-01T01:28:26.151Z,12.37
2017-12-01T01:30:54.460Z,13.20
2017-12-01T01:33:22.731Z,14.30
2017-12-01T01:35:51.898Z,15.00
2017-12-01T01:38:20.171Z,13.27
2017-12-01T01:40:49.225Z,12.57
2017-12-01T01:43:17.513Z,14.53
2017-12-01T01:45:45.777Z,14.87
2017-12-01T01:48:14.068Z,13.60
2017-12-01T01:50:42.345Z,13.90
2017-12-01T01:53:10.612Z,13.20
2017-12-01T01:55:38.900Z,14.77
2017-12-01T01:58:07.161Z,11.37
2017-12-01T02:00:35.452Z,12.43
2017-12-01T02:03:03.711Z,10.70
2017-12-01T02:05:32.006Z,12.20
2017-12-01T02:08:00.276Z,12.07
2017-12-01T02:10:28.543Z,11.00
2017-12-01T02:12:56.868Z,12.70
2017-12-01T02:15:25.148Z,10.30
2017-12-01T02:17:53.834Z,10.90
2017-12-01T02:20:22.084Z,12.33
2017-12-01T02:22:50.341Z,11.00
2017-12-01T02:25:19.392Z,12.33
2017-12-01T02:27:47.674Z,11.50
2017-12-01T02:30:15.970Z,11.93
2017-12-01T02:32:44.454Z,10.37
2017-12-01T02:35:12.724Z,13.00
2017-12-01T02:37:41.112Z,11.73
2017-12-01T02:40:09.385Z,10.97
2017-12-01T02:42:37.693Z,11.80
2017-12-01T02:45:06.716Z,12.17
2017-12-01T02:47:34.976Z,12.20
2017-12-01T02:50:03.260Z,12.70
2017-12-01T02:52:31.524Z,11.23
2017-12-01T02:55:00.688Z,12.33
2017-12-01T02:57:28.959Z,11.40
2017-12-01T02:59:57.343Z,11.67
2017-12-01T03:02:25.587Z,10.37
2017-12-01T03:04:54.239Z,10.73
2017-12-01T03:07:23.301Z,11.90
2017-12-01T03:09:51.555Z,10.70
2017-12-01T03:12:19.836Z,9.73
2017-12-01T03:14:48.099Z,12.77
2017-12-01T03:17:16.431Z,10.20
2017-12-01T03:19:45.504Z,10.43
2017-12-01T03:22:13.886Z,10.50
2017-12-01T03:24:42.144Z,11.43
2017-12-01T03:27:10.418Z,11.30
2017-12-01T03:29:38.695Z,12.50
2017-12-01T03:32:06.969Z,11.50
2017-12-01T03:34:35.239Z,11.00
2017-12-01T03:37:03.546Z,11.90
2017-12-01T03:39:31.877Z,11.90
2017-12-01T03:42:00.143Z,12.67
2017-12-01T03:44:29.196Z,11.50
2017-12-01T03:46:57.571Z,12.43
2017-12-01T03:49:25.829Z,10.30
2017-12-01T03:51:54.115Z,12.23
2017-12-01T03:54:22.420Z,12.47
2017-12-01T03:56:50.780Z,12.77
2017-12-01T03:59:19.086Z,11.07
2017-12-01T04:01:48.124Z,12.63
2017-12-01T04:04:16.410Z,12.07
2017-12-01T04:06:44.708Z,12.90
2017-12-01T04:09:12.999Z,12.37
2017-12-01T04:11:41.271Z,14.13
2017-12-01T04:14:09.588Z,10.87
2017-12-01T04:16:37.923Z,14.43
2017-12-01T04:19:06.184Z,12.17
2017-12-01T04:21:34.479Z,15.07
2017-12-01T04:24:02.760Z,12.90
2017-12-01T04:26:31.044Z,11.60
2017-12-01T04:28:59.313Z,12.77
2017-12-01T04:31:29.908Z,14.50
2017-12-01T04:33:58.184Z,14.50
2017-12-01T04:36:26.456Z,12.87
2017-12-01T04:38:54.745Z,14.77
2017-12-01T04:41:23.020Z,14.17
2017-12-01T04:43:51.296Z,12.87
2017-12-01T04:46:19.566Z,13.53
2017-12-01T04:48:47.928Z,17.57
2017-12-01T04:51:16.968Z,15.17
2017-12-01T04:53:45.241Z,15.70
2017-12-01T04:56:13.524Z,14.53
2017-12-01T04:58:41.805Z,14.17
2017-12-01T05:01:10.183Z,15.03
2017-12-01T05:03:38.445Z,16.47
2017-12-01T05:06:06.836Z,14.67
2017-12-01T05:08:35.124Z,14.27
2017-12-01T05:11:03.397Z,14.50
2017-12-01T05:13:31.683Z,13.33
2017-12-01T05:15:59.945Z,11.60
2017-12-01T05:18:28.329Z,13.00
2017-12-01T05:20:56.607Z,13.60
2017-12-01T05:23:24.989Z,11.70
2017-12-01T05:25:54.030Z,12.97
2017-12-01T05:28:23.076Z,12.07
2017-12-01T05:30:51.371Z,11.33
2017-12-01T05:33:20.404Z,12.07
2017-12-01T05:35:48.709Z,13.80
2017-12-01T05:38:17.004Z,13.53
2017-12-01T05:40:45.269Z,11.60
2017-12-01T05:43:13.558Z,11.90
2017-12-01T05:45:41.886Z,13.50
2017-12-01T05:48:10.926Z,13.87
2017-12-01T05:50:39.189Z,13.30
2017-12-01T05:53:07.828Z,13.07
2017-12-01T05:55:36.880Z,12.80
2017-12-01T05:58:05.150Z,12.87
2017-12-01T06:00:33.456Z,13.27
2017-12-01T06:03:01.719Z,13.17
2017-12-01T06:05:29.987Z,11.43
2017-12-01T06:07:58.273Z,13.77
2017-12-01T06:10:26.653Z,13.33
2017-12-01T06:12:55.035Z,14.30
2017-12-01T06:15:23.292Z,14.10
2017-12-01T06:17:51.568Z,12.93
2017-12-01T06:20:19.855Z,15.20
2017-12-01T06:22:48.122Z,12.23
2017-12-01T06:25:16.429Z,13.37
2017-12-01T06:27:44.797Z,14.50
2017-12-01T06:30:13.084Z,13.57
2017-12-01T06:32:41.448Z,14.70
2017-12-01T06:35:09.714Z,16.27
2017-12-01T06:37:38.110Z,12.47
2017-12-01T06:40:06.367Z,13.10
2017-12-01T06:42:34.765Z,14.07
2017-12-01T06:45:03.050Z,13.97
2017-12-01T06:47:31.304Z,15.67
2017-12-01T06:49:59.597Z,13.67
2017-12-01T06:52:27.890Z,14.20
2017-12-01T06:54:56.200Z,13.17
2017-12-01T06:57:24.482Z,11.83
2017-12-01T06:59:52.743Z,14.87
2017-12-01T07:02:21.036Z,14.43
2017-12-01T07:04:49.308Z,12.00
2017-12-01T07:07:17.638Z,13.43
2017-12-01T07:09:45.931Z,12.10
2017-12-01T07:12:14.181Z,14.03
2017-12-01T07:14:42.470Z,14.27
2017-12-01T07:17:10.750Z,13.60
2017-12-01T07:19:40.043Z,13.97
2017-12-01T07:22:08.310Z,12.17
2017-12-01T07:24:36.616Z,11.77
2017-12-01T07:27:10.710Z,14.90
2017-12-01T07:29:39.831Z,12.23
2017-12-01T07:32:08.916Z,14.47
2017-12-01T07:34:37.391Z,15.57
2017-12-01T07:37:05.771Z,13.30
2017-12-01T07:39:34.029Z,11.77
2017-12-01T07:42:02.340Z,10.47
2017-12-01T07:44:35.459Z,10.90
2017-12-01T07:47:03.752Z,12.50
2017-12-01T07:49:32.015Z,11.50
2017-12-01T07:52:00.287Z,12.23
2017-12-01T07:54:28.583Z,11.83
2017-12-01T07:56:56.847Z,12.03
2017-12-01T07:59:25.138Z,12.67
2017-12-01T08:01:53.403Z,14.27
2017-12-01T08:04:21.665Z,15.40
2017-12-01T08:06:50.716Z,14.50
2017-12-01T08:09:18.976Z,14.57
2017-12-01T08:11:47.261Z,12.80
2017-12-01T08:14:16.288Z,13.67
2017-12-01T08:16:56.307Z,13.77
2017-12-01T08:19:26.140Z,13.20
2017-12-01T08:22:07.473Z,14.63
2017-12-01T08:27:34.284Z,17.13
2017-12-01T08:30:03.312Z,12.27
2017-12-01T08:32:31.580Z,13.70
2017-12-01T08:34:59.872Z,15.57
2017-12-01T08:37:28.136Z,14.67
2017-12-01T08:39:56.424Z,13.23
2017-12-01T08:42:24.703Z,14.73
2017-12-01T08:44:53.000Z,13.80
2017-12-01T08:47:22.717Z,15.33
2017-12-01T08:49:50.992Z,16.87
2017-12-01T08:52:19.278Z,15.33
2017-12-01T08:54:48.327Z,16.00
2017-12-01T08:57:16.644Z,17.50
2017-12-01T08:59:45.024Z,13.50
2017-12-01T09:02:13.272Z,14.83
2017-12-01T09:04:41.583Z,14.80
2017-12-01T09:07:09.836Z,13.13
2017-12-01T09:09:38.096Z,12.40
2017-12-01T09:12:06.383Z,15.43
2017-12-01T09:14:34.637Z,11.90
2017-12-01T09:17:02.917Z,16.20
2017-12-01T09:19:31.185Z,13.80
2017-12-01T09:22:00.204Z,13.87
2017-12-01T09:24:28.479Z,12.33
2017-12-01T09:26:56.752Z,13.37
2017-12-01T09:29:25.037Z,15.77
2017-12-01T09:31:53.295Z,15.00
2017-12-01T09:34:21.551Z,11.90
2017-12-01T09:36:50.602Z,13.80
2017-12-01T09:39:18.888Z,12.30
2017-12-01T09:41:48.088Z,12.30
2017-12-01T09:44:16.344Z,13.67
2017-12-01T09:46:44.611Z,13.43
2017-12-01T09:49:12.888Z,13.27
2017-12-01T09:51:41.148Z,13.50
2017-12-01T09:54:09.476Z,13.60
2017-12-01T09:56:37.755Z,14.23
2017-12-01T09:59:06.017Z,14.03
2017-12-01T10:01:34.305Z,12.13
2017-12-01T10:04:02.561Z,14.53
2017-12-01T10:06:30.964Z,13.37
2017-12-01T10:08:59.224Z,13.30
2017-12-01T10:11:27.538Z,13.83
2017-12-01T10:13:55.775Z,14.00
2017-12-01T10:16:24.036Z,11.33
2017-12-01T10:18:52.348Z,13.10
2017-12-01T10:21:20.601Z,12.97
2017-12-01T10:23:48.864Z,11.60
2017-12-01T10:26:17.149Z,11.87
2017-12-01T10:28:45.408Z,13.07
2017-12-01T10:31:13.699Z,10.67
2017-12-01T10:33:41.956Z,15.87
2017-12-01T10:36:10.216Z,14.50
2017-12-01T10:38:39.327Z,14.37
2017-12-01T10:41:08.371Z,12.10
2017-12-01T10:43:36.604Z,11.50
2017-12-01T10:46:04.889Z,11.97
2017-12-01T10:48:33.136Z,12.63
2017-12-01T10:51:02.204Z,12.13
2017-12-01T10:53:30.464Z,10.83
2017-12-01T10:55:58.712Z,9.10
2017-12-01T10:58:27.024Z,12.83
2017-12-01T11:00:55.301Z,9.23
2017-12-01T11:03:23.599Z,12.23
2017-12-01T11:05:52.679Z,9.87
2017-12-01T11:08:21.053Z,11.87
2017-12-01T11:10:50.144Z,11.20
2017-12-01T11:13:18.404Z,11.53
2017-12-01T11:15:47.383Z,10.77
2017-12-01T11:18:15.644Z,12.97
2017-12-01T11:20:44.674Z,13.13
2017-12-01T11:23:12.963Z,12.80
2017-12-01T11:25:41.227Z,11.03
2017-12-01T11:28:09.524Z,10.20
2017-12-01T11:30:37.788Z,10.83
2017-12-01T11:33:06.045Z,11.70
2017-12-01T11:35:34.323Z,11.47
2017-12-01T11:38:02.584Z,10.70
2017-12-01T11:40:31.650Z,10.13
2017-12-01T11:43:00.737Z,10.70
2017-12-01T11:45:29.780Z,11.83
2017-12-01T11:47:58.070Z,10.77
2017-12-01T11:50:26.329Z,10.40
2017-12-01T11:52:54.631Z,12.20
2017-12-01T11:55:22.890Z,10.70
2017-12-01T11:57:51.152Z,11.30
2017-12-01T12:00:20.197Z,10.50
2017-12-01T12:02:48.452Z,11.67
2017-12-01T12:05:17.552Z,9.93
2017-12-01T12:07:45.880Z,11.50
2017-12-01T12:10:14.136Z,9.97
2017-12-01T12:12:42.416Z,10.40
2017-12-01T12:15:10.788Z,11.40
2017-12-01T12:17:39.088Z,11.27
2017-12-01T12:20:08.876Z,8.33
2017-12-01T12:22:37.132Z,8.40
2017-12-01T12:25:05.412Z,8.87
2017-12-01T12:27:33.672Z,10.10
2017-12-01T12:30:01.953Z,7.80
2017-12-01T12:32:30.200Z,8.93
2017-12-01T12:34:59.225Z,10.13
2017-12-01T12:37:27.531Z,8.07
2017-12-01T12:39:55.780Z,9.10
2017-12-01T12:42:24.072Z,7.53
2017-12-01T12:44:52.968Z,8.30
2017-12-01T12:47:21.220Z,7.40
2017-12-01T12:49:49.500Z,9.90
2017-12-01T12:52:17.784Z,8.90
2017-12-01T12:54:46.059Z,8.67
2017-12-01T12:57:14.322Z,8.97
2017-12-01T12:59:42.628Z,9.70
2017-12-01T13:02:10.889Z,8.73
2017-12-01T13:04:39.133Z,8.90
2017-12-01T13:07:08.181Z,9.37
2017-12-01T13:09:36.444Z,11.60
2017-12-01T13:12:04.752Z,9.10
2017-12-01T13:14:32.999Z,9.77
2017-12-01T13:17:01.250Z,9.83
2017-12-01T13:19:29.524Z,8.73
2017-12-01T13:21:57.780Z,10.10
2017-12-01T13:24:26.828Z,9.40
2017-12-01T13:26:55.101Z,8.20
2017-12-01T13:29:23.364Z,7.57
2017-12-01T13:31:51.664Z,7.30
2017-12-01T13:34:19.924Z,9.63
2017-12-01T13:36:48.204Z,8.70
2017-12-01T13:39:16.469Z,9.53
2017-12-01T13:41:44.774Z,9.73
2017-12-01T13:44:13.067Z,10.53
2017-12-01T13:46:41.312Z,8.60
2017-12-01T13:49:09.708Z,9.67
2017-12-01T13:51:37.968Z,8.43
2017-12-01T13:54:06.217Z,8.20
2017-12-01T13:56:34.508Z,9.37
2017-12-01T13:59:02.764Z,9.30
2017-12-01T14:01:31.848Z,7.93
2017-12-01T14:04:00.880Z,9.47
2017-12-01T14:06:29.131Z,9.80
2017-12-01T14:08:58.172Z,9.43
2017-12-01T14:11:26.770Z,8.53
2017-12-01T14:13:55.075Z,8.47
2017-12-01T14:16:24.857Z,10.80
2017-12-01T14:18:53.112Z,8.93
2017-12-01T14:21:21.399Z,8.27
2017-12-01T14:23:50.419Z,8.50
2017-12-01T14:26:18.725Z,8.97
2017-12-01T14:28:48.316Z,10.00
2017-12-01T14:31:16.577Z,10.10
2017-12-01T14:33:44.855Z,10.00
2017-12-01T14:36:13.128Z,8.03
2017-12-01T14:38:41.416Z,8.73
2017-12-01T14:41:09.675Z,10.03
2017-12-01T14:43:37.927Z,9.60
2017-12-01T14:46:06.241Z,9.20
2017-12-01T14:48:34.500Z,9.20
2017-12-01T14:51:02.866Z,9.70
2017-12-01T14:53:31.269Z,9.30
2017-12-01T14:55:59.575Z,11.68
2017-12-01T14:58:28.651Z,9.97
2017-12-01T15:00:57.016Z,11.87
2017-12-01T15:03:25.390Z,10.37
2017-12-01T15:05:53.780Z,11.13
2017-12-01T15:08:22.028Z,9.93
2017-12-01T15:10:50.300Z,11.83
2017-12-01T15:13:18.575Z,11.33
2017-12-01T15:15:46.866Z,10.40
2017-12-01T15:18:15.132Z,10.73
2017-12-01T15:20:43.392Z,11.83
2017-12-01T15:23:11.714Z,11.90
2017-12-01T15:25:39.968Z,9.50
2017-12-01T15:28:08.251Z,11.60
2017-12-01T15:30:36.508Z,11.73
2017-12-01T15:33:04.808Z,9.10
2017-12-01T15:35:33.071Z,11.03
2017-12-01T15:38:01.331Z,10.73
2017-12-01T15:40:29.624Z,10.00
2017-12-01T15:42:57.890Z,11.20
2017-12-01T15:45:26.177Z,9.30
2017-12-01T15:47:54.751Z,12.10
2017-12-01T15:50:23.008Z,12.57
2017-12-01T15:52:52.057Z,11.40
2017-12-01T15:55:20.333Z,10.20
2017-12-01T15:57:48.659Z,9.60
2017-12-01T16:00:17.674Z,11.63
2017-12-01T16:02:45.934Z,10.67
2017-12-01T16:05:15.086Z,9.40
2017-12-01T16:07:43.340Z,11.60
2017-12-01T16:10:11.792Z,9.20
2017-12-01T16:12:40.068Z,10.27
2017-12-01T16:15:09.091Z,8.93
2017-12-01T16:17:37.367Z,9.20
2017-12-01T16:20:05.619Z,10.60
2017-12-01T16:22:33.911Z,10.40
2017-12-01T16:25:02.169Z,8.00
2017-12-01T16:27:31.220Z,6.80
2017-12-01T16:29:59.513Z,7.83
2017-12-01T16:32:28.593Z,9.43
2017-12-01T16:34:56.884Z,8.33
2017-12-01T16:37:26.648Z,7.03
2017-12-01T16:39:54.956Z,7.63
2017-12-01T16:42:23.439Z,9.27
2017-12-01T16:44:51.684Z,8.30
2017-12-01T16:47:20.003Z,7.17
2017-12-01T16:49:48.268Z,8.70
2017-12-01T16:52:16.515Z,7.97
2017-12-01T16:54:44.800Z,9.37
2017-12-01T16:57:13.052Z,9.23
2017-12-01T16:59:41.311Z,7.80
2017-12-01T17:02:10.351Z,8.40
2017-12-01T17:04:38.603Z,9.20
2017-12-01T17:07:06.880Z,9.80
2017-12-01T17:09:35.154Z,9.23
2017-12-01T17:12:04.917Z,9.53
2017-12-01T17:14:33.180Z,7.30
2017-12-01T17:17:01.988Z,9.53
2017-12-01T17:19:30.282Z,7.87
2017-12-01T17:21:59.351Z,9.17
2017-12-01T17:24:27.655Z,8.37
2017-12-01T17:26:56.694Z,7.37
2017-12-01T17:29:25.033Z,6.20
2017-12-01T17:31:53.304Z,6.70
2017-12-01T17:34:22.324Z,7.40
2017-12-01T17:36:50.620Z,6.67
2017-12-01T17:39:18.884Z,6.83
2017-12-01T17:41:47.893Z,8.03
2017-12-01T17:44:16.168Z,7.90
2017-12-01T17:46:44.451Z,7.70
2017-12-01T17:49:12.760Z,7.77
2017-12-01T17:51:41.004Z,7.83
2017-12-01T17:54:09.275Z,9.70
2017-12-01T17:56:37.543Z,9.47
2017-12-01T17:59:05.800Z,8.50
2017-12-01T18:01:34.948Z,8.43
2017-12-01T18:04:03.216Z,9.10
2017-12-01T18:06:31.476Z,8.00
2017-12-01T18:08:59.754Z,8.60
2017-12-01T18:11:28.008Z,7.93
2017-12-01T18:13:57.163Z,8.67
2017-12-01T18:16:25.543Z,9.70
2017-12-01T18:18:53.784Z,7.33
2017-12-01T18:21:22.060Z,9.30
2017-12-01T18:23:50.328Z,9.03
2017-12-01T18:26:18.624Z,8.10
2017-12-01T18:28:46.879Z,8.70
2017-12-01T18:31:15.140Z,9.07
2017-12-01T18:33:44.179Z,8.27
2017-12-01T18:36:12.433Z,8.87
2017-12-01T18:38:40.731Z,9.97
2017-12-01T18:41:08.979Z,10.73
2017-12-01T18:43:37.321Z,10.50
2017-12-01T18:46:07.221Z,9.30
2017-12-01T18:48:35.467Z,8.80
2017-12-01T18:51:03.775Z,10.90
2017-12-01T18:53:32.029Z,8.73
2017-12-01T18:56:00.276Z,9.40
2017-12-01T18:58:28.551Z,8.20
2017-12-01T19:00:57.612Z,8.67
2017-12-01T19:03:25.926Z,9.27
2017-12-01T19:05:54.978Z,8.60
2017-12-01T19:08:23.223Z,8.77
2017-12-01T19:10:51.521Z,8.60
2017-12-01T19:13:19.910Z,11.80
2017-12-01T19:15:48.220Z,11.77
2017-12-01T19:18:17.257Z,8.70
2017-12-01T19:20:45.519Z,10.93
2017-12-01T19:23:13.796Z,11.03
2017-12-01T19:25:42.064Z,10.80
2017-12-01T19:28:10.360Z,9.70
2017-12-01T19:30:38.640Z,9.30
2017-12-01T19:33:06.931Z,11.00
2017-12-01T19:35:35.320Z,13.77
2017-12-01T19:38:03.576Z,10.47
2017-12-01T19:40:31.978Z,10.00
2017-12-01T19:43:00.228Z,14.20
2017-12-01T19:45:28.499Z,10.90
2017-12-01T19:47:56.784Z,12.20
2017-12-01T19:50:25.047Z,12.93
2017-12-01T19:52:53.343Z,12.07
2017-12-01T19:55:21.660Z,10.20
2017-12-01T19:57:49.884Z,10.47
2017-12-01T20:00:18.164Z,8.63
2017-12-01T20:02:46.434Z,8.97
2017-12-01T20:05:14.849Z,9.57
2017-12-01T20:07:43.112Z,10.80
2017-12-01T20:10:11.393Z,10.13
2017-12-01T20:12:39.691Z,9.13
2017-12-01T20:15:07.947Z,9.07
2017-12-01T20:17:36.208Z,10.27
2017-12-01T20:20:04.500Z,13.00
2017-12-01T20:22:32.787Z,11.00
2017-12-01T20:25:01.180Z,14.23
2017-12-01T20:27:30.947Z,9.97
2017-12-01T20:29:59.204Z,13.60
2017-12-01T20:32:27.490Z,15.17
2017-12-01T20:34:56.629Z,13.00
2017-12-01T20:37:24.944Z,11.87
2017-12-01T20:39:54.118Z,13.10
2017-12-01T20:42:22.384Z,13.90
2017-12-01T20:44:50.684Z,13.97
2017-12-01T20:47:19.715Z,14.20
2017-12-01T20:49:48.000Z,11.43
2017-12-01T20:52:16.259Z,10.97
2017-12-01T20:54:44.528Z,11.80
2017-12-01T20:57:13.690Z,11.43
2017-12-01T20:59:41.948Z,10.00
2017-12-01T21:02:10.251Z,12.73
2017-12-01T21:04:39.360Z,12.80
2017-12-01T21:07:09.107Z,9.60
2017-12-01T21:09:37.389Z,12.33
2017-12-01T21:12:05.696Z,13.13
2017-12-01T21:14:34.076Z,10.10
2017-12-01T21:17:02.356Z,9.47
2017-12-01T21:19:30.603Z,9.73
2017-12-01T21:21:58.883Z,10.13
2017-12-01T21:24:27.135Z,9.90
2017-12-01T21:26:55.435Z,12.67
2017-12-01T21:29:23.702Z,11.57
2017-12-01T21:31:51.964Z,11.40
2017-12-01T21:34:20.248Z,11.60
2017-12-01T21:36:48.575Z,10.03
2017-12-01T21:39:16.875Z,9.33
2017-12-01T21:41:45.126Z,12.73
2017-12-01T21:44:13.380Z,10.70
2017-12-01T21:46:41.656Z,10.93
2017-12-01T21:49:09.911Z,13.30
2017-12-01T21:51:38.203Z,11.80
2017-12-01T21:54:06.514Z,12.37
2017-12-01T21:56:34.773Z,13.70
2017-12-01T21:59:03.044Z,14.00
2017-12-01T22:01:31.321Z,13.13
2017-12-01T22:03:59.615Z,13.93
2017-12-01T22:06:27.868Z,12.50
2017-12-01T22:08:56.144Z,13.00
2017-12-01T22:11:24.419Z,13.00
2017-12-01T22:13:52.686Z,12.13
2017-12-01T22:16:20.972Z,12.90
2017-12-01T22:18:49.228Z,11.17
2017-12-01T22:21:17.495Z,11.00
2017-12-01T22:23:46.543Z,11.70
2017-12-01T22:26:14.819Z,11.17
2017-12-01T22:28:43.106Z,10.07
2017-12-01T22:31:11.378Z,12.37
2017-12-01T22:33:39.628Z,9.60
2017-12-01T22:36:07.908Z,9.77
2017-12-01T22:38:36.318Z,8.57
2017-12-01T22:41:04.800Z,8.90
2017-12-01T22:43:33.052Z,9.40
2017-12-01T22:46:01.313Z,11.17
2017-12-01T22:48:29.579Z,8.83
2017-12-01T22:50:57.835Z,8.93
2017-12-01T22:53:26.900Z,8.90
2017-12-01T22:55:55.164Z,10.70
2017-12-01T22:58:23.420Z,10.13
2017-12-01T23:00:51.705Z,10.40
2017-12-01T23:03:19.992Z,11.00
2017-12-01T23:05:48.296Z,8.63
2017-12-01T23:08:16.700Z,10.97
2017-12-01T23:10:45.870Z,9.53
2017-12-01T23:13:14.244Z,10.37
2017-12-01T23:15:42.492Z,11.07
2017-12-01T23:18:10.792Z,9.20
2017-12-01T23:20:39.055Z,9.30
2017-12-01T23:23:07.321Z,8.93
2017-12-01T23:25:35.608Z,12.33
2017-12-01T23:28:03.867Z,10.40
2017-12-01T23:30:32.164Z,8.50
2017-12-01T23:33:00.436Z,11.07
2017-12-01T23:35:28.699Z,9.43
2017-12-01T23:37:56.996Z,9.93
2017-12-01T23:40:25.255Z,9.10
2017-12-01T23:42:53.516Z,9.67
2017-12-01T23:45:22.558Z,10.00
2017-12-01T23:47:50.811Z,11.30
2017-12-01T23:50:19.116Z,8.60
2017-12-01T23:52:47.363Z,8.23
2017-12-01T23:55:15.620Z,9.83
2017-12-01T23:57:43.947Z,10.40
